sensor_id;sensor_type;location;lat;lon;timestamp;pressure;altitude;pressure_sealevel;temperature;humidity
3150;BME280;32503;47.748;8.960;2023-07-16T00:00:15;96825.75;;;24.62;70.16
3150;BME280;32503;47.748;8.960;2023-07-16T00:02:44;96832.34;;;24.77;69.87
3150;BME280;32503;47.748;8.960;2023-07-16T00:05:11;96842.31;;;24.74;69.77
3150;BME280;32503;47.748;8.960;2023-07-16T00:07:39;96834.47;;;24.73;69.51
3150;BME280;32503;47.748;8.960;2023-07-16T00:10:07;96842.50;;;24.80;68.82
3150;BME280;32503;47.748;8.960;2023-07-16T00:12:35;96843.06;;;24.75;68.55
3150;BME280;32503;47.748;8.960;2023-07-16T00:15:02;96825.75;;;24.62;68.78
3150;BME280;32503;47.748;8.960;2023-07-16T00:17:29;96833.25;;;24.39;69.90
3150;BME280;32503;47.748;8.960;2023-07-16T00:19:56;96833.03;;;24.33;69.93
3150;BME280;32503;47.748;8.960;2023-07-16T00:22:23;96827.50;;;24.33;69.55
3150;BME280;32503;47.748;8.960;2023-07-16T00:24:52;96834.69;;;24.31;69.31
3150;BME280;32503;47.748;8.960;2023-07-16T00:27:19;96849.16;;;24.35;69.37
3150;BME280;32503;47.748;8.960;2023-07-16T00:29:46;96869.47;;;24.41;69.46
3150;BME280;32503;47.748;8.960;2023-07-16T00:32:13;96870.25;;;24.41;69.09
3150;BME280;32503;47.748;8.960;2023-07-16T00:34:40;96860.44;;;24.28;69.41
3150;BME280;32503;47.748;8.960;2023-07-16T00:37:07;96822.78;;;24.21;69.25
3150;BME280;32503;47.748;8.960;2023-07-16T00:39:34;96851.31;;;24.18;69.59
3150;BME280;32503;47.748;8.960;2023-07-16T00:42:03;96868.78;;;24.15;69.78
3150;BME280;32503;47.748;8.960;2023-07-16T00:44:30;96869.00;;;24.08;69.74
3150;BME280;32503;47.748;8.960;2023-07-16T00:46:57;96878.38;;;24.10;69.21
3150;BME280;32503;47.748;8.960;2023-07-16T00:49:25;96864.47;;;24.01;69.80
3150;BME280;32503;47.748;8.960;2023-07-16T00:51:52;96866.25;;;23.95;69.55
3150;BME280;32503;47.748;8.960;2023-07-16T00:54:20;96861.06;;;23.97;69.50
3150;BME280;32503;47.748;8.960;2023-07-16T00:56:47;96855.00;;;24.02;69.23
3150;BME280;32503;47.748;8.960;2023-07-16T00:59:16;96843.16;;;24.01;68.86
3150;BME280;32503;47.748;8.960;2023-07-16T01:01:43;96840.19;;;23.96;69.65
3150;BME280;32503;47.748;8.960;2023-07-16T01:04:10;96844.81;;;23.99;69.44
3150;BME280;32503;47.748;8.960;2023-07-16T01:06:41;96837.75;;;23.98;68.50
3150;BME280;32503;47.748;8.960;2023-07-16T01:09:14;96837.75;;;23.98;68.43
3150;BME280;32503;47.748;8.960;2023-07-16T01:11:43;96847.69;;;24.08;68.08
3150;BME280;32503;47.748;8.960;2023-07-16T01:14:12;96866.69;;;24.06;68.09
3150;BME280;32503;47.748;8.960;2023-07-16T01:16:41;96860.28;;;24.09;67.56
3150;BME280;32503;47.748;8.960;2023-07-16T01:19:09;96855.00;;;24.02;66.63
3150;BME280;32503;47.748;8.960;2023-07-16T01:21:45;96861.28;;;23.90;66.27
3150;BME280;32503;47.748;8.960;2023-07-16T01:24:48;96866.78;;;23.77;65.48
3150;BME280;32503;47.748;8.960;2023-07-16T01:27:43;96867.69;;;23.74;65.17
3150;BME280;32503;47.748;8.960;2023-07-16T01:30:19;96885.31;;;23.76;65.00
3150;BME280;32503;47.748;8.960;2023-07-16T01:32:47;96874.19;;;23.67;64.58
3150;BME280;32503;47.748;8.960;2023-07-16T01:35:15;96871.75;;;23.69;64.54
3150;BME280;32503;47.748;8.960;2023-07-16T01:37:43;96864.47;;;23.50;64.51
3150;BME280;32503;47.748;8.960;2023-07-16T01:40:10;96877.94;;;23.47;64.44
3150;BME280;32503;47.748;8.960;2023-07-16T01:42:38;96879.25;;;23.43;64.52
3150;BME280;32503;47.748;8.960;2023-07-16T01:45:06;96883.78;;;23.50;64.27
3150;BME280;32503;47.748;8.960;2023-07-16T01:47:43;96901.41;;;23.39;64.10
3150;BME280;32503;47.748;8.960;2023-07-16T01:50:12;96913.56;;;23.42;64.16
3150;BME280;32503;47.748;8.960;2023-07-16T01:52:39;96916.97;;;23.33;64.34
3150;BME280;32503;47.748;8.960;2023-07-16T01:55:07;96924.13;;;23.01;64.52
3150;BME280;32503;47.748;8.960;2023-07-16T01:57:34;96911.22;;;22.82;64.68
3150;BME280;32503;47.748;8.960;2023-07-16T02:00:01;96906.38;;;22.57;63.65
3150;BME280;32503;47.748;8.960;2023-07-16T02:02:29;96908.13;;;22.50;64.55
3150;BME280;32503;47.748;8.960;2023-07-16T02:04:57;96912.16;;;22.46;64.17
3150;BME280;32503;47.748;8.960;2023-07-16T02:07:24;96911.81;;;22.11;63.60
3150;BME280;32503;47.748;8.960;2023-07-16T02:09:51;96928.81;;;22.06;64.64
3150;BME280;32503;47.748;8.960;2023-07-16T02:12:18;96936.41;;;22.18;64.46
3150;BME280;32503;47.748;8.960;2023-07-16T02:14:45;96929.06;;;21.95;63.59
3150;BME280;32503;47.748;8.960;2023-07-16T02:17:12;96937.06;;;21.53;64.75
3150;BME280;32503;47.748;8.960;2023-07-16T02:19:39;96950.38;;;21.34;65.43
3150;BME280;32503;47.748;8.960;2023-07-16T02:22:08;96950.81;;;21.33;65.50
3150;BME280;32503;47.748;8.960;2023-07-16T02:24:35;96954.91;;;21.45;65.49
3150;BME280;32503;47.748;8.960;2023-07-16T02:27:03;96940.88;;;21.59;65.49
3150;BME280;32503;47.748;8.960;2023-07-16T02:29:31;96952.09;;;21.48;64.48
3150;BME280;32503;47.748;8.960;2023-07-16T02:31:59;96966.06;;;21.57;64.73
3150;BME280;32503;47.748;8.960;2023-07-16T02:34:26;96985.16;;;21.65;64.60
3150;BME280;32503;47.748;8.960;2023-07-16T02:36:53;96995.34;;;21.48;63.09
3150;BME280;32503;47.748;8.960;2023-07-16T02:39:21;96972.47;;;21.51;63.72
3150;BME280;32503;47.748;8.960;2023-07-16T02:41:48;96960.56;;;21.57;63.45
3150;BME280;32503;47.748;8.960;2023-07-16T02:44:15;96973.22;;;21.31;62.85
3150;BME280;32503;47.748;8.960;2023-07-16T02:46:42;96994.47;;;21.31;64.61
3150;BME280;32503;47.748;8.960;2023-07-16T02:49:10;96990.72;;;21.41;64.55
3150;BME280;32503;47.748;8.960;2023-07-16T02:51:37;96983.41;;;21.54;64.13
3150;BME280;32503;47.748;8.960;2023-07-16T02:54:04;96988.53;;;21.72;63.67
3150;BME280;32503;47.748;8.960;2023-07-16T02:56:33;96993.97;;;21.76;63.40
3150;BME280;32503;47.748;8.960;2023-07-16T02:59:00;96995.53;;;21.77;63.37
3150;BME280;32503;47.748;8.960;2023-07-16T03:01:27;96993.53;;;21.77;63.18
3150;BME280;32503;47.748;8.960;2023-07-16T03:03:54;97004.53;;;21.77;62.87
3150;BME280;32503;47.748;8.960;2023-07-16T03:06:21;96997.88;;;21.58;62.92
3150;BME280;32503;47.748;8.960;2023-07-16T03:08:48;96981.41;;;21.35;63.41
3150;BME280;32503;47.748;8.960;2023-07-16T03:11:15;96981.53;;;21.28;64.11
3150;BME280;32503;47.748;8.960;2023-07-16T03:13:44;96973.66;;;21.30;64.28
3150;BME280;32503;47.748;8.960;2023-07-16T03:16:11;96980.72;;;21.31;64.46
3150;BME280;32503;47.748;8.960;2023-07-16T03:18:38;96964.50;;;21.16;63.96
3150;BME280;32503;47.748;8.960;2023-07-16T03:21:05;96984.66;;;21.30;63.98
3150;BME280;32503;47.748;8.960;2023-07-16T03:23:32;97002.63;;;21.34;64.00
3150;BME280;32503;47.748;8.960;2023-07-16T03:25:59;96992.41;;;21.35;63.67
3150;BME280;32503;47.748;8.960;2023-07-16T03:28:26;96992.41;;;21.35;64.15
3150;BME280;32503;47.748;8.960;2023-07-16T03:30:55;96987.03;;;21.28;64.62
3150;BME280;32503;47.748;8.960;2023-07-16T03:33:22;96987.88;;;21.25;64.46
3150;BME280;32503;47.748;8.960;2023-07-16T03:35:49;96987.19;;;21.20;64.30
3150;BME280;32503;47.748;8.960;2023-07-16T03:38:17;96983.38;;;21.14;64.32
3150;BME280;32503;47.748;8.960;2023-07-16T03:40:47;96979.63;;;21.05;64.44
3150;BME280;32503;47.748;8.960;2023-07-16T03:43:15;96937.84;;;20.70;64.31
3150;BME280;32503;47.748;8.960;2023-07-16T03:45:43;96976.53;;;21.02;64.29
3150;BME280;32503;47.748;8.960;2023-07-16T03:48:11;96996.19;;;21.01;64.46
3150;BME280;32503;47.748;8.960;2023-07-16T03:50:38;96998.56;;;20.99;63.52
3150;BME280;32503;47.748;8.960;2023-07-16T03:53:06;96986.94;;;20.91;63.80
3150;BME280;32503;47.748;8.960;2023-07-16T03:55:33;96981.13;;;20.86;62.85
3150;BME280;32503;47.748;8.960;2023-07-16T03:58:00;97005.84;;;20.86;62.91
3150;BME280;32503;47.748;8.960;2023-07-16T04:00:27;97023.19;;;20.82;62.65
3150;BME280;32503;47.748;8.960;2023-07-16T04:02:54;97020.88;;;20.81;62.92
3150;BME280;32503;47.748;8.960;2023-07-16T04:05:23;97029.19;;;20.77;63.45
3150;BME280;32503;47.748;8.960;2023-07-16T04:07:51;97023.56;;;20.85;63.98
3150;BME280;32503;47.748;8.960;2023-07-16T04:10:18;97024.69;;;20.87;64.02
3150;BME280;32503;47.748;8.960;2023-07-16T04:12:45;97032.63;;;20.81;63.36
3150;BME280;32503;47.748;8.960;2023-07-16T04:15:12;97030.94;;;20.88;62.76
3150;BME280;32503;47.748;8.960;2023-07-16T04:17:39;97019.78;;;20.98;62.44
3150;BME280;32503;47.748;8.960;2023-07-16T04:20:08;97023.03;;;20.93;62.49
3150;BME280;32503;47.748;8.960;2023-07-16T04:22:37;97046.47;;;20.98;62.52
3150;BME280;32503;47.748;8.960;2023-07-16T04:25:04;97041.72;;;21.02;62.54
3150;BME280;32503;47.748;8.960;2023-07-16T04:27:32;97044.00;;;21.07;62.66
3150;BME280;32503;47.748;8.960;2023-07-16T04:29:59;97031.50;;;21.02;62.36
3150;BME280;32503;47.748;8.960;2023-07-16T04:32:26;97041.59;;;21.09;62.25
3150;BME280;32503;47.748;8.960;2023-07-16T04:34:53;97046.72;;;21.07;62.14
3150;BME280;32503;47.748;8.960;2023-07-16T04:37:20;97054.72;;;20.98;62.92
3150;BME280;32503;47.748;8.960;2023-07-16T04:39:48;97054.00;;;20.94;62.72
3150;BME280;32503;47.748;8.960;2023-07-16T04:42:15;97037.88;;;20.96;62.72
3150;BME280;32503;47.748;8.960;2023-07-16T04:44:43;97044.88;;;21.00;62.58
3150;BME280;32503;47.748;8.960;2023-07-16T04:47:10;97039.69;;;21.06;61.97
3150;BME280;32503;47.748;8.960;2023-07-16T04:49:37;97048.69;;;21.07;62.00
3150;BME280;32503;47.748;8.960;2023-07-16T04:52:06;97053.91;;;21.01;62.00
3150;BME280;32503;47.748;8.960;2023-07-16T04:54:36;97059.03;;;20.99;62.62
3150;BME280;32503;47.748;8.960;2023-07-16T04:57:07;97064.19;;;20.97;62.52
3150;BME280;32503;47.748;8.960;2023-07-16T04:59:34;97080.13;;;21.06;62.56
3150;BME280;32503;47.748;8.960;2023-07-16T05:02:04;97076.47;;;21.12;62.58
3150;BME280;32503;47.748;8.960;2023-07-16T05:04:32;97083.53;;;21.13;63.06
3150;BME280;32503;47.748;8.960;2023-07-16T05:07:00;97088.25;;;21.13;62.79
3150;BME280;32503;47.748;8.960;2023-07-16T05:09:28;97095.59;;;21.19;62.85
3150;BME280;32503;47.748;8.960;2023-07-16T05:11:55;97091.22;;;21.22;62.73
3150;BME280;32503;47.748;8.960;2023-07-16T05:14:28;97088.06;;;21.24;62.87
3150;BME280;32503;47.748;8.960;2023-07-16T05:16:55;97088.47;;;21.22;62.59
3150;BME280;32503;47.748;8.960;2023-07-16T05:19:23;97095.53;;;21.23;62.53
3150;BME280;32503;47.748;8.960;2023-07-16T05:21:50;97090.09;;;21.19;62.68
3150;BME280;32503;47.748;8.960;2023-07-16T05:24:17;97088.59;;;21.15;62.89
3150;BME280;32503;47.748;8.960;2023-07-16T05:26:44;97081.91;;;20.92;61.99
3150;BME280;32503;47.748;8.960;2023-07-16T05:29:11;97078.75;;;20.94;62.55
3150;BME280;32503;47.748;8.960;2023-07-16T05:31:39;97080.31;;;20.95;62.48
3150;BME280;32503;47.748;8.960;2023-07-16T05:34:06;97089.75;;;20.94;62.32
3150;BME280;32503;47.748;8.960;2023-07-16T05:36:33;97087.69;;;20.98;62.39
3150;BME280;32503;47.748;8.960;2023-07-16T05:39:00;97094.00;;;20.98;61.65
3150;BME280;32503;47.748;8.960;2023-07-16T05:41:28;97097.16;;;20.97;61.34
3150;BME280;32503;47.748;8.960;2023-07-16T05:43:55;97088.84;;;21.00;61.27
3150;BME280;32503;47.748;8.960;2023-07-16T05:46:22;97085.19;;;20.83;60.08
3150;BME280;32503;47.748;8.960;2023-07-16T05:48:51;97087.69;;;20.74;59.96
3150;BME280;32503;47.748;8.960;2023-07-16T05:51:18;97090.78;;;20.76;60.86
3150;BME280;32503;47.748;8.960;2023-07-16T05:53:45;97087.94;;;20.56;60.04
3150;BME280;32503;47.748;8.960;2023-07-16T05:56:12;97088.91;;;20.42;61.75
3150;BME280;32503;47.748;8.960;2023-07-16T05:58:41;97085.66;;;20.51;62.22
3150;BME280;32503;47.748;8.960;2023-07-16T06:01:08;97102.72;;;20.66;62.52
3150;BME280;32503;47.748;8.960;2023-07-16T06:03:35;97107.88;;;20.88;61.67
3150;BME280;32503;47.748;8.960;2023-07-16T06:06:04;97104.53;;;21.00;60.86
3150;BME280;32503;47.748;8.960;2023-07-16T06:08:31;97098.97;;;21.07;60.62
3150;BME280;32503;47.748;8.960;2023-07-16T06:10:58;97107.38;;;21.20;60.86
3150;BME280;32503;47.748;8.960;2023-07-16T06:13:25;97104.66;;;21.40;60.15
3150;BME280;32503;47.748;8.960;2023-07-16T06:15:52;97103.94;;;21.59;59.65
3150;BME280;32503;47.748;8.960;2023-07-16T06:18:19;97093.88;;;21.73;59.29
3150;BME280;32503;47.748;8.960;2023-07-16T06:20:47;97088.78;;;21.91;58.41
3150;BME280;32503;47.748;8.960;2023-07-16T06:23:16;97084.75;;;22.16;57.71
3150;BME280;32503;47.748;8.960;2023-07-16T06:25:43;97079.41;;;22.29;57.21
3150;BME280;32503;47.748;8.960;2023-07-16T06:28:10;97101.06;;;22.63;56.61
3150;BME280;32503;47.748;8.960;2023-07-16T06:30:37;97090.19;;;22.72;53.89
3150;BME280;32503;47.748;8.960;2023-07-16T06:33:04;97083.25;;;22.68;54.28
3150;BME280;32503;47.748;8.960;2023-07-16T06:35:32;97075.72;;;22.85;54.24
3150;BME280;32503;47.748;8.960;2023-07-16T06:37:59;97075.38;;;22.99;53.23
3150;BME280;32503;47.748;8.960;2023-07-16T06:40:29;97078.81;;;23.36;52.95
3150;BME280;32503;47.748;8.960;2023-07-16T06:42:56;97079.19;;;23.97;51.68
3150;BME280;32503;47.748;8.960;2023-07-16T06:45:23;97071.72;;;24.36;49.14
3150;BME280;32503;47.748;8.960;2023-07-16T06:47:50;97049.31;;;24.59;47.91
3150;BME280;32503;47.748;8.960;2023-07-16T06:50:17;97075.41;;;25.19;47.14
3150;BME280;32503;47.748;8.960;2023-07-16T06:52:44;97070.63;;;25.32;45.90
3150;BME280;32503;47.748;8.960;2023-07-16T06:55:12;97073.69;;;25.47;44.57
3150;BME280;32503;47.748;8.960;2023-07-16T06:57:40;97073.13;;;25.74;44.73
3150;BME280;32503;47.748;8.960;2023-07-16T07:00:08;97077.41;;;26.10;44.65
3150;BME280;32503;47.748;8.960;2023-07-16T07:02:37;97072.22;;;26.22;43.15
3150;BME280;32503;47.748;8.960;2023-07-16T07:05:05;97084.06;;;26.54;42.54
3150;BME280;32503;47.748;8.960;2023-07-16T07:07:32;97065.91;;;26.53;42.44
3150;BME280;32503;47.748;8.960;2023-07-16T07:09:59;97078.16;;;26.74;41.92
3150;BME280;32503;47.748;8.960;2023-07-16T07:12:27;97081.34;;;26.63;41.61
3150;BME280;32503;47.748;8.960;2023-07-16T07:14:55;97074.38;;;26.99;41.89
3150;BME280;32503;47.748;8.960;2023-07-16T07:17:22;97087.34;;;27.11;42.26
3150;BME280;32503;47.748;8.960;2023-07-16T07:19:49;97077.78;;;27.12;41.96
3150;BME280;32503;47.748;8.960;2023-07-16T07:22:16;97067.91;;;27.02;41.69
3150;BME280;32503;47.748;8.960;2023-07-16T07:24:43;97073.72;;;26.95;42.08
3150;BME280;32503;47.748;8.960;2023-07-16T07:27:10;97060.75;;;26.73;42.15
3150;BME280;32503;47.748;8.960;2023-07-16T07:29:37;97057.38;;;26.47;42.75
3150;BME280;32503;47.748;8.960;2023-07-16T07:32:07;97050.75;;;26.44;43.29
3150;BME280;32503;47.748;8.960;2023-07-16T07:34:35;97056.28;;;26.35;43.08
3150;BME280;32503;47.748;8.960;2023-07-16T07:37:02;97052.09;;;26.30;43.39
3150;BME280;32503;47.748;8.960;2023-07-16T07:39:29;97060.84;;;26.29;43.92
3150;BME280;32503;47.748;8.960;2023-07-16T07:41:56;97072.81;;;26.57;43.24
3150;BME280;32503;47.748;8.960;2023-07-16T07:44:23;97074.00;;;26.78;41.97
3150;BME280;32503;47.748;8.960;2023-07-16T07:46:50;97072.81;;;26.89;42.23
3150;BME280;32503;47.748;8.960;2023-07-16T07:49:19;97075.00;;;27.12;41.84
3150;BME280;32503;47.748;8.960;2023-07-16T07:51:46;97064.72;;;27.40;41.20
3150;BME280;32503;47.748;8.960;2023-07-16T07:54:15;97067.94;;;27.76;40.73
3150;BME280;32503;47.748;8.960;2023-07-16T07:56:42;97070.84;;;28.18;39.83
3150;BME280;32503;47.748;8.960;2023-07-16T07:59:09;97069.69;;;28.44;39.11
3150;BME280;32503;47.748;8.960;2023-07-16T08:01:36;97073.34;;;28.50;38.94
3150;BME280;32503;47.748;8.960;2023-07-16T08:04:03;97056.16;;;28.27;39.34
3150;BME280;32503;47.748;8.960;2023-07-16T08:06:32;97066.53;;;28.60;38.74
3150;BME280;32503;47.748;8.960;2023-07-16T08:08:59;97076.91;;;28.93;38.33
3150;BME280;32503;47.748;8.960;2023-07-16T08:11:26;97070.88;;;29.19;38.14
3150;BME280;32503;47.748;8.960;2023-07-16T08:13:53;97067.78;;;29.17;37.97
3150;BME280;32503;47.748;8.960;2023-07-16T08:16:21;97052.31;;;29.40;37.63
3150;BME280;32503;47.748;8.960;2023-07-16T08:18:48;97042.44;;;29.39;36.95
3150;BME280;32503;47.748;8.960;2023-07-16T08:21:15;97048.25;;;29.65;36.70
3150;BME280;32503;47.748;8.960;2023-07-16T08:23:47;97041.41;;;29.66;36.18
3150;BME280;32503;47.748;8.960;2023-07-16T08:26:14;97041.28;;;29.45;37.10
3150;BME280;32503;47.748;8.960;2023-07-16T08:28:41;97048.66;;;29.34;36.73
3150;BME280;32503;47.748;8.960;2023-07-16T08:31:10;97056.66;;;29.17;37.53
3150;BME280;32503;47.748;8.960;2023-07-16T08:33:38;97056.50;;;28.87;37.48
3150;BME280;32503;47.748;8.960;2023-07-16T08:36:06;97057.84;;;28.67;37.67
3150;BME280;32503;47.748;8.960;2023-07-16T08:38:33;97050.44;;;28.64;38.48
3150;BME280;32503;47.748;8.960;2023-07-16T08:41:01;97055.16;;;28.82;38.05
3150;BME280;32503;47.748;8.960;2023-07-16T08:43:29;97054.22;;;28.52;38.96
3150;BME280;32503;47.748;8.960;2023-07-16T08:45:57;97063.00;;;28.50;39.23
3150;BME280;32503;47.748;8.960;2023-07-16T08:48:25;97058.06;;;28.88;38.72
3150;BME280;32503;47.748;8.960;2023-07-16T08:50:56;97056.81;;;28.89;38.61
3150;BME280;32503;47.748;8.960;2023-07-16T08:53:24;97066.75;;;28.81;39.25
3150;BME280;32503;47.748;8.960;2023-07-16T08:55:51;97072.66;;;28.73;38.15
3150;BME280;32503;47.748;8.960;2023-07-16T08:58:23;97077.94;;;28.96;38.04
3150;BME280;32503;47.748;8.960;2023-07-16T09:00:51;97083.41;;;28.90;38.18
3150;BME280;32503;47.748;8.960;2023-07-16T09:03:18;97068.72;;;28.89;37.65
3150;BME280;32503;47.748;8.960;2023-07-16T09:05:45;97074.13;;;28.93;38.29
3150;BME280;32503;47.748;8.960;2023-07-16T09:08:13;97057.16;;;28.82;38.57
3150;BME280;32503;47.748;8.960;2023-07-16T09:10:41;97074.00;;;28.54;38.32
3150;BME280;32503;47.748;8.960;2023-07-16T09:13:09;97068.13;;;28.43;39.08
3150;BME280;32503;47.748;8.960;2023-07-16T09:15:37;97061.97;;;28.39;40.21
3150;BME280;32503;47.748;8.960;2023-07-16T09:18:06;97057.22;;;28.30;39.99
3150;BME280;32503;47.748;8.960;2023-07-16T09:20:36;97053.78;;;27.92;41.00
3150;BME280;32503;47.748;8.960;2023-07-16T09:23:03;97057.50;;;27.71;40.60
3150;BME280;32503;47.748;8.960;2023-07-16T09:25:30;97053.00;;;27.73;41.42
3150;BME280;32503;47.748;8.960;2023-07-16T09:28:02;97029.09;;;27.57;40.74
3150;BME280;32503;47.748;8.960;2023-07-16T09:30:31;97051.00;;;27.83;40.61
3150;BME280;32503;47.748;8.960;2023-07-16T09:33:10;97059.31;;;27.74;39.94
3150;BME280;32503;47.748;8.960;2023-07-16T09:35:38;97062.38;;;27.76;41.08
3150;BME280;32503;47.748;8.960;2023-07-16T09:38:07;97059.34;;;27.92;41.38
3150;BME280;32503;47.748;8.960;2023-07-16T09:40:35;97065.16;;;28.04;40.52
3150;BME280;32503;47.748;8.960;2023-07-16T09:43:03;97059.56;;;28.13;40.61
3150;BME280;32503;47.748;8.960;2023-07-16T09:45:30;97062.09;;;27.83;40.66
3150;BME280;32503;47.748;8.960;2023-07-16T09:47:57;97062.56;;;27.72;40.52
3150;BME280;32503;47.748;8.960;2023-07-16T09:50:28;97065.94;;;27.67;40.79
3150;BME280;32503;47.748;8.960;2023-07-16T09:52:56;97059.34;;;27.65;41.04
3150;BME280;32503;47.748;8.960;2023-07-16T09:55:24;97071.66;;;27.54;41.74
3150;BME280;32503;47.748;8.960;2023-07-16T09:57:56;97080.31;;;27.47;41.83
3150;BME280;32503;47.748;8.960;2023-07-16T10:00:24;97072.69;;;27.01;42.48
3150;BME280;32503;47.748;8.960;2023-07-16T10:02:52;97060.50;;;27.08;43.05
3150;BME280;32503;47.748;8.960;2023-07-16T10:05:23;97060.66;;;27.14;42.85
3150;BME280;32503;47.748;8.960;2023-07-16T10:07:55;97050.69;;;27.35;42.73
3150;BME280;32503;47.748;8.960;2023-07-16T10:10:38;97049.88;;;26.97;43.06
3150;BME280;32503;47.748;8.960;2023-07-16T10:13:07;97052.34;;;26.95;43.44
3150;BME280;32503;47.748;8.960;2023-07-16T10:15:34;97053.84;;;26.96;43.51
3150;BME280;32503;47.748;8.960;2023-07-16T10:18:02;97052.03;;;27.12;43.20
3150;BME280;32503;47.748;8.960;2023-07-16T10:20:30;97059.44;;;27.05;42.98
3150;BME280;32503;47.748;8.960;2023-07-16T10:23:10;97062.91;;;27.37;43.49
3150;BME280;32503;47.748;8.960;2023-07-16T10:25:39;97061.97;;;27.50;43.00
3150;BME280;32503;47.748;8.960;2023-07-16T10:28:06;97056.41;;;27.68;42.82
3150;BME280;32503;47.748;8.960;2023-07-16T10:30:33;97060.88;;;27.56;42.02
3150;BME280;32503;47.748;8.960;2023-07-16T10:33:03;97067.97;;;27.57;42.55
3150;BME280;32503;47.748;8.960;2023-07-16T10:35:41;97062.09;;;27.74;41.81
3150;BME280;32503;47.748;8.960;2023-07-16T10:38:09;97056.84;;;27.20;42.47
3150;BME280;32503;47.748;8.960;2023-07-16T10:40:40;97062.38;;;27.11;43.29
3150;BME280;32503;47.748;8.960;2023-07-16T10:43:07;97064.88;;;27.37;43.30
3150;BME280;32503;47.748;8.960;2023-07-16T10:45:34;97059.78;;;27.63;43.35
3150;BME280;32503;47.748;8.960;2023-07-16T10:48:02;97065.16;;;27.76;42.76
3150;BME280;32503;47.748;8.960;2023-07-16T10:50:32;97068.25;;;27.87;42.61
3150;BME280;32503;47.748;8.960;2023-07-16T10:53:00;97056.88;;;27.57;42.34
3150;BME280;32503;47.748;8.960;2023-07-16T10:55:30;97058.72;;;27.33;43.04
3150;BME280;32503;47.748;8.960;2023-07-16T10:58:04;97059.69;;;26.48;44.51
3150;BME280;32503;47.748;8.960;2023-07-16T11:00:36;97050.78;;;25.91;46.09
3150;BME280;32503;47.748;8.960;2023-07-16T11:03:04;97037.25;;;25.71;46.94
3150;BME280;32503;47.748;8.960;2023-07-16T11:05:31;97044.34;;;25.72;46.48
3150;BME280;32503;47.748;8.960;2023-07-16T11:07:58;97046.47;;;25.46;47.09
3150;BME280;32503;47.748;8.960;2023-07-16T11:10:29;97042.66;;;25.30;48.33
3150;BME280;32503;47.748;8.960;2023-07-16T11:12:57;97039.78;;;25.56;47.54
3150;BME280;32503;47.748;8.960;2023-07-16T11:15:31;97047.19;;;25.59;48.02
3150;BME280;32503;47.748;8.960;2023-07-16T11:18:00;97036.25;;;25.56;47.87
3150;BME280;32503;47.748;8.960;2023-07-16T11:20:28;97032.78;;;25.64;47.59
3150;BME280;32503;47.748;8.960;2023-07-16T11:22:58;97043.47;;;25.75;46.98
3150;BME280;32503;47.748;8.960;2023-07-16T11:25:26;97042.63;;;25.87;46.90
3150;BME280;32503;47.748;8.960;2023-07-16T11:27:56;97041.44;;;25.98;47.09
3150;BME280;32503;47.748;8.960;2023-07-16T11:30:23;97043.56;;;26.16;46.56
3150;BME280;32503;47.748;8.960;2023-07-16T11:32:51;97038.44;;;26.05;46.43
3150;BME280;32503;47.748;8.960;2023-07-16T11:35:19;97038.94;;;26.13;46.14
3150;BME280;32503;47.748;8.960;2023-07-16T11:37:47;97034.94;;;25.91;45.93
3150;BME280;32503;47.748;8.960;2023-07-16T11:40:17;97023.19;;;25.56;46.53
3150;BME280;32503;47.748;8.960;2023-07-16T11:42:45;97024.25;;;25.59;47.01
3150;BME280;32503;47.748;8.960;2023-07-16T11:45:18;97022.44;;;25.87;46.96
3150;BME280;32503;47.748;8.960;2023-07-16T11:47:46;97025.41;;;26.24;46.55
3150;BME280;32503;47.748;8.960;2023-07-16T11:50:13;97024.03;;;26.60;45.50
3150;BME280;32503;47.748;8.960;2023-07-16T11:52:41;97026.22;;;26.65;44.42
3150;BME280;32503;47.748;8.960;2023-07-16T11:55:08;97027.91;;;26.31;45.02
3150;BME280;32503;47.748;8.960;2023-07-16T11:57:35;97021.91;;;26.01;45.76
3150;BME280;32503;47.748;8.960;2023-07-16T12:00:04;97017.69;;;26.19;47.24
3150;BME280;32503;47.748;8.960;2023-07-16T12:02:34;97026.00;;;26.19;46.32
3150;BME280;32503;47.748;8.960;2023-07-16T12:05:01;97027.66;;;25.85;46.85
3150;BME280;32503;47.748;8.960;2023-07-16T12:07:33;97028.00;;;25.43;47.25
3150;BME280;32503;47.748;8.960;2023-07-16T12:10:01;97025.84;;;25.25;48.43
3150;BME280;32503;47.748;8.960;2023-07-16T12:12:29;97024.91;;;25.41;47.85
3150;BME280;32503;47.748;8.960;2023-07-16T12:14:56;97023.03;;;25.82;47.33
3150;BME280;32503;47.748;8.960;2023-07-16T12:17:23;97025.31;;;25.96;46.72
3150;BME280;32503;47.748;8.960;2023-07-16T12:19:52;97009.31;;;26.00;46.59
3150;BME280;32503;47.748;8.960;2023-07-16T12:22:19;97013.69;;;26.10;46.83
3150;BME280;32503;47.748;8.960;2023-07-16T12:24:46;97009.78;;;25.99;46.68
3150;BME280;32503;47.748;8.960;2023-07-16T12:27:14;97007.56;;;26.16;46.31
3150;BME280;32503;47.748;8.960;2023-07-16T12:29:42;96978.56;;;26.07;46.99
3150;BME280;32503;47.748;8.960;2023-07-16T12:32:09;96998.25;;;26.41;46.00
3150;BME280;32503;47.748;8.960;2023-07-16T12:34:37;96996.03;;;26.67;45.60
3150;BME280;32503;47.748;8.960;2023-07-16T12:37:05;97003.97;;;27.05;45.71
3150;BME280;32503;47.748;8.960;2023-07-16T12:39:33;97003.00;;;26.81;44.61
3150;BME280;32503;47.748;8.960;2023-07-16T12:42:00;97013.00;;;26.88;45.24
3150;BME280;32503;47.748;8.960;2023-07-16T12:44:28;97006.22;;;26.79;45.12
3150;BME280;32503;47.748;8.960;2023-07-16T12:46:55;97004.84;;;26.84;45.19
3150;BME280;32503;47.748;8.960;2023-07-16T12:49:22;97005.28;;;26.82;45.72
3150;BME280;32503;47.748;8.960;2023-07-16T12:51:50;97002.25;;;26.99;45.45
3150;BME280;32503;47.748;8.960;2023-07-16T12:54:18;97005.19;;;27.14;44.68
3150;BME280;32503;47.748;8.960;2023-07-16T12:56:45;97008.44;;;27.58;43.86
3150;BME280;32503;47.748;8.960;2023-07-16T12:59:13;96999.34;;;27.39;44.23
3150;BME280;32503;47.748;8.960;2023-07-16T13:01:40;97008.25;;;27.16;43.93
3150;BME280;32503;47.748;8.960;2023-07-16T13:04:07;97002.88;;;27.03;44.00
3150;BME280;32503;47.748;8.960;2023-07-16T13:06:34;96984.38;;;27.09;44.71
3150;BME280;32503;47.748;8.960;2023-07-16T13:09:01;96992.41;;;27.16;44.01
3150;BME280;32503;47.748;8.960;2023-07-16T13:11:32;97007.66;;;27.02;44.60
3150;BME280;32503;47.748;8.960;2023-07-16T13:13:59;97000.53;;;27.01;44.64